sensor_id;sensor_type;location;lat;lon;timestamp;P1;durP1;ratioP1;P2;durP2;ratioP2
22606;SDS011;11470;20.968;105.834;2023-05-19T00:02:43;66.40;;;45.05;;
22606;SDS011;11470;20.968;105.834;2023-05-19T00:07:50;54.00;;;35.15;;
22606;SDS011;11470;20.968;105.834;2023-05-19T00:12:57;68.15;;;46.22;;
22606;SDS011;11470;20.968;105.834;2023-05-19T00:18:04;58.95;;;41.35;;
22606;SDS011;11470;20.968;105.834;2023-05-19T00:23:11;61.67;;;43.53;;
22606;SDS011;11470;20.968;105.834;2023-05-19T00:28:17;63.45;;;42.95;;
22606;SDS011;11470;20.968;105.834;2023-05-19T00:33:22;54.20;;;37.72;;
22606;SDS011;11470;20.968;105.834;2023-05-19T00:38:29;65.80;;;41.47;;
22606;SDS011;11470;20.968;105.834;2023-05-19T00:43:35;65.43;;;43.05;;
22606;SDS011;11470;20.968;105.834;2023-05-19T00:48:41;63.80;;;42.35;;
22606;SDS011;11470;20.968;105.834;2023-05-19T00:53:48;46.67;;;36.28;;
22606;SDS011;11470;20.968;105.834;2023-05-19T00:58:56;48.13;;;35.47;;
22606;SDS011;11470;20.968;105.834;2023-05-19T01:04:02;48.67;;;34.65;;
22606;SDS011;11470;20.968;105.834;2023-05-19T01:09:08;58.42;;;40.30;;
22606;SDS011;11470;20.968;105.834;2023-05-19T01:14:15;50.00;;;37.25;;
22606;SDS011;11470;20.968;105.834;2023-05-19T01:24:54;60.20;;;42.53;;
22606;SDS011;11470;20.968;105.834;2023-05-19T01:35:29;64.65;;;44.70;;
22606;SDS011;11470;20.968;105.834;2023-05-19T01:40:36;54.17;;;37.78;;
22606;SDS011;11470;20.968;105.834;2023-05-19T01:45:44;49.53;;;35.60;;
22606;SDS011;11470;20.968;105.834;2023-05-19T01:50:51;45.55;;;33.85;;
22606;SDS011;11470;20.968;105.834;2023-05-19T01:55:58;67.75;;;44.95;;
22606;SDS011;11470;20.968;105.834;2023-05-19T02:01:09;59.22;;;42.38;;
22606;SDS011;11470;20.968;105.834;2023-05-19T02:12:10;60.72;;;44.30;;
22606;SDS011;11470;20.968;105.834;2023-05-19T02:17:15;67.57;;;47.45;;
22606;SDS011;11470;20.968;105.834;2023-05-19T02:22:23;54.60;;;40.28;;
22606;SDS011;11470;20.968;105.834;2023-05-19T02:27:30;66.18;;;46.78;;
22606;SDS011;11470;20.968;105.834;2023-05-19T02:32:36;56.78;;;42.72;;
22606;SDS011;11470;20.968;105.834;2023-05-19T02:37:43;61.55;;;43.97;;
22606;SDS011;11470;20.968;105.834;2023-05-19T02:42:49;57.15;;;45.13;;
22606;SDS011;11470;20.968;105.834;2023-05-19T02:47:54;48.72;;;38.08;;
22606;SDS011;11470;20.968;105.834;2023-05-19T02:53:00;48.83;;;37.28;;
22606;SDS011;11470;20.968;105.834;2023-05-19T02:58:06;53.20;;;40.22;;
22606;SDS011;11470;20.968;105.834;2023-05-19T03:03:11;61.65;;;46.03;;
22606;SDS011;11470;20.968;105.834;2023-05-19T03:08:18;80.75;;;50.83;;
22606;SDS011;11470;20.968;105.834;2023-05-19T03:13:24;67.63;;;46.13;;
22606;SDS011;11470;20.968;105.834;2023-05-19T03:18:41;54.15;;;39.40;;
22606;SDS011;11470;20.968;105.834;2023-05-19T03:23:46;62.63;;;45.25;;
22606;SDS011;11470;20.968;105.834;2023-05-19T03:28:52;52.75;;;39.92;;
22606;SDS011;11470;20.968;105.834;2023-05-19T03:33:58;57.72;;;41.85;;
22606;SDS011;11470;20.968;105.834;2023-05-19T03:39:06;60.88;;;45.85;;
22606;SDS011;11470;20.968;105.834;2023-05-19T03:44:12;65.63;;;48.17;;
22606;SDS011;11470;20.968;105.834;2023-05-19T03:49:18;55.38;;;42.15;;
22606;SDS011;11470;20.968;105.834;2023-05-19T03:54:47;59.42;;;45.30;;
22606;SDS011;11470;20.968;105.834;2023-05-19T03:59:53;65.70;;;48.85;;
22606;SDS011;11470;20.968;105.834;2023-05-19T04:05:00;51.08;;;41.08;;
22606;SDS011;11470;20.968;105.834;2023-05-19T04:10:08;56.35;;;40.88;;
22606;SDS011;11470;20.968;105.834;2023-05-19T04:15:14;54.85;;;41.38;;
22606;SDS011;11470;20.968;105.834;2023-05-19T04:20:19;64.47;;;44.05;;
22606;SDS011;11470;20.968;105.834;2023-05-19T04:25:25;48.75;;;39.63;;
22606;SDS011;11470;20.968;105.834;2023-05-19T04:30:31;52.38;;;40.80;;
22606;SDS011;11470;20.968;105.834;2023-05-19T04:35:37;58.28;;;41.42;;
22606;SDS011;11470;20.968;105.834;2023-05-19T04:40:44;53.13;;;40.72;;
22606;SDS011;11470;20.968;105.834;2023-05-19T04:45:53;48.15;;;36.72;;
22606;SDS011;11470;20.968;105.834;2023-05-19T04:51:01;44.88;;;34.58;;
22606;SDS011;11470;20.968;105.834;2023-05-19T04:56:07;53.85;;;39.60;;
22606;SDS011;11470;20.968;105.834;2023-05-19T05:01:14;53.28;;;39.15;;
22606;SDS011;11470;20.968;105.834;2023-05-19T05:06:21;56.58;;;39.50;;
22606;SDS011;11470;20.968;105.834;2023-05-19T05:18:01;44.67;;;35.63;;
22606;SDS011;11470;20.968;105.834;2023-05-19T05:23:06;49.50;;;36.83;;
22606;SDS011;11470;20.968;105.834;2023-05-19T05:28:14;54.20;;;37.47;;
22606;SDS011;11470;20.968;105.834;2023-05-19T05:33:22;48.28;;;34.85;;
22606;SDS011;11470;20.968;105.834;2023-05-19T05:39:32;55.92;;;38.67;;
22606;SDS011;11470;20.968;105.834;2023-05-19T05:44:40;56.00;;;40.33;;
22606;SDS011;11470;20.968;105.834;2023-05-19T05:49:48;44.97;;;34.28;;
22606;SDS011;11470;20.968;105.834;2023-05-19T05:55:14;49.17;;;37.88;;
22606;SDS011;11470;20.968;105.834;2023-05-19T06:00:39;46.67;;;35.42;;
22606;SDS011;11470;20.968;105.834;2023-05-19T06:06:00;43.80;;;35.80;;
22606;SDS011;11470;20.968;105.834;2023-05-19T06:11:12;41.45;;;35.15;;
22606;SDS011;11470;20.968;105.834;2023-05-19T06:16:19;47.22;;;36.65;;
22606;SDS011;11470;20.968;105.834;2023-05-19T06:21:27;40.00;;;32.33;;
22606;SDS011;11470;20.968;105.834;2023-05-19T06:26:37;50.17;;;37.78;;
22606;SDS011;11470;20.968;105.834;2023-05-19T06:31:42;44.97;;;37.10;;
22606;SDS011;11470;20.968;105.834;2023-05-19T06:36:50;51.13;;;37.08;;
22606;SDS011;11470;20.968;105.834;2023-05-19T06:41:56;39.10;;;28.95;;
22606;SDS011;11470;20.968;105.834;2023-05-19T06:47:24;47.45;;;35.35;;
22606;SDS011;11470;20.968;105.834;2023-05-19T06:52:30;43.78;;;34.30;;
22606;SDS011;11470;20.968;105.834;2023-05-19T06:57:36;37.35;;;30.17;;
22606;SDS011;11470;20.968;105.834;2023-05-19T07:02:42;46.80;;;34.63;;
22606;SDS011;11470;20.968;105.834;2023-05-19T07:07:53;48.58;;;35.50;;
22606;SDS011;11470;20.968;105.834;2023-05-19T07:13:01;47.20;;;31.05;;
22606;SDS011;11470;20.968;105.834;2023-05-19T07:18:09;42.55;;;34.05;;
22606;SDS011;11470;20.968;105.834;2023-05-19T07:23:15;43.58;;;32.63;;
22606;SDS011;11470;20.968;105.834;2023-05-19T07:28:21;41.70;;;32.78;;
22606;SDS011;11470;20.968;105.834;2023-05-19T07:33:27;45.78;;;32.90;;
22606;SDS011;11470;20.968;105.834;2023-05-19T07:45:03;29.90;;;23.73;;
22606;SDS011;11470;20.968;105.834;2023-05-19T07:50:11;43.53;;;31.40;;
22606;SDS011;11470;20.968;105.834;2023-05-19T07:55:16;35.55;;;26.55;;
22606;SDS011;11470;20.968;105.834;2023-05-19T08:00:22;41.03;;;30.83;;
22606;SDS011;11470;20.968;105.834;2023-05-19T08:05:28;35.83;;;27.42;;
22606;SDS011;11470;20.968;105.834;2023-05-19T08:10:39;41.70;;;32.67;;
22606;SDS011;11470;20.968;105.834;2023-05-19T08:15:45;47.20;;;29.65;;
22606;SDS011;11470;20.968;105.834;2023-05-19T08:20:59;39.20;;;28.98;;
22606;SDS011;11470;20.968;105.834;2023-05-19T08:26:08;40.30;;;30.75;;
22606;SDS011;11470;20.968;105.834;2023-05-19T08:31:13;38.00;;;28.73;;
22606;SDS011;11470;20.968;105.834;2023-05-19T08:36:21;42.60;;;30.60;;
22606;SDS011;11470;20.968;105.834;2023-05-19T08:41:27;40.75;;;29.45;;
22606;SDS011;11470;20.968;105.834;2023-05-19T08:46:36;39.72;;;31.25;;
22606;SDS011;11470;20.968;105.834;2023-05-19T08:51:45;40.50;;;31.35;;
22606;SDS011;11470;20.968;105.834;2023-05-19T08:57:05;39.65;;;31.20;;
22606;SDS011;11470;20.968;105.834;2023-05-19T09:02:15;35.45;;;30.42;;
22606;SDS011;11470;20.968;105.834;2023-05-19T09:07:25;47.95;;;31.88;;
22606;SDS011;11470;20.968;105.834;2023-05-19T09:12:36;36.33;;;29.93;;
22606;SDS011;11470;20.968;105.834;2023-05-19T09:17:45;45.13;;;30.40;;
22606;SDS011;11470;20.968;105.834;2023-05-19T09:22:53;43.72;;;31.30;;
22606;SDS011;11470;20.968;105.834;2023-05-19T09:28:01;45.70;;;29.30;;
22606;SDS011;11470;20.968;105.834;2023-05-19T09:33:19;39.58;;;29.63;;
22606;SDS011;11470;20.968;105.834;2023-05-19T09:38:30;43.25;;;29.45;;
22606;SDS011;11470;20.968;105.834;2023-05-19T09:43:57;38.00;;;29.95;;
22606;SDS011;11470;20.968;105.834;2023-05-19T09:49:44;41.22;;;29.65;;
22606;SDS011;11470;20.968;105.834;2023-05-19T09:55:59;37.30;;;28.92;;
22606;SDS011;11470;20.968;105.834;2023-05-19T10:00:49;45.70;;;31.73;;
22606;SDS011;11470;20.968;105.834;2023-05-19T10:05:57;42.42;;;30.65;;
22606;SDS011;11470;20.968;105.834;2023-05-19T10:11:12;40.35;;;29.80;;
22606;SDS011;11470;20.968;105.834;2023-05-19T10:16:21;37.95;;;29.38;;
22606;SDS011;11470;20.968;105.834;2023-05-19T10:21:30;46.00;;;30.80;;
22606;SDS011;11470;20.968;105.834;2023-05-19T10:26:35;40.80;;;31.60;;
22606;SDS011;11470;20.968;105.834;2023-05-19T10:31:44;35.67;;;29.77;;
22606;SDS011;11470;20.968;105.834;2023-05-19T10:36:58;43.33;;;30.75;;
22606;SDS011;11470;20.968;105.834;2023-05-19T10:42:18;47.90;;;31.83;;
22606;SDS011;11470;20.968;105.834;2023-05-19T10:47:56;40.75;;;30.02;;
22606;SDS011;11470;20.968;105.834;2023-05-19T10:53:02;46.38;;;32.35;;
22606;SDS011;11470;20.968;105.834;2023-05-19T10:58:10;42.58;;;31.80;;
22606;SDS011;11470;20.968;105.834;2023-05-19T11:03:53;42.73;;;31.77;;
22606;SDS011;11470;20.968;105.834;2023-05-19T11:14:35;42.42;;;30.75;;
22606;SDS011;11470;20.968;105.834;2023-05-19T11:19:55;46.00;;;34.00;;
22606;SDS011;11470;20.968;105.834;2023-05-19T11:25:03;39.92;;;32.10;;
22606;SDS011;11470;20.968;105.834;2023-05-19T11:30:10;41.95;;;32.55;;
22606;SDS011;11470;20.968;105.834;2023-05-19T11:35:21;41.97;;;34.17;;
22606;SDS011;11470;20.968;105.834;2023-05-19T11:40:28;40.78;;;33.20;;
22606;SDS011;11470;20.968;105.834;2023-05-19T11:45:34;50.80;;;36.38;;
22606;SDS011;11470;20.968;105.834;2023-05-19T11:50:40;45.35;;;33.17;;
22606;SDS011;11470;20.968;105.834;2023-05-19T11:55:47;51.05;;;34.60;;
22606;SDS011;11470;20.968;105.834;2023-05-19T12:00:56;50.80;;;35.10;;
22606;SDS011;11470;20.968;105.834;2023-05-19T12:06:07;49.42;;;35.10;;
22606;SDS011;11470;20.968;105.834;2023-05-19T12:11:12;48.20;;;35.38;;
22606;SDS011;11470;20.968;105.834;2023-05-19T12:16:20;45.70;;;33.25;;
22606;SDS011;11470;20.968;105.834;2023-05-19T12:21:26;45.58;;;33.50;;
22606;SDS011;11470;20.968;105.834;2023-05-19T12:26:36;50.67;;;34.30;;
22606;SDS011;11470;20.968;105.834;2023-05-19T12:31:41;47.65;;;34.30;;
22606;SDS011;11470;20.968;105.834;2023-05-19T12:36:51;51.50;;;35.55;;
22606;SDS011;11470;20.968;105.834;2023-05-19T12:42:00;42.15;;;33.78;;
22606;SDS011;11470;20.968;105.834;2023-05-19T12:47:13;48.40;;;34.80;;
22606;SDS011;11470;20.968;105.834;2023-05-19T12:52:20;48.47;;;35.20;;
22606;SDS011;11470;20.968;105.834;2023-05-19T12:57:27;45.35;;;35.90;;
22606;SDS011;11470;20.968;105.834;2023-05-19T13:08:08;47.75;;;33.85;;
22606;SDS011;11470;20.968;105.834;2023-05-19T13:13:14;49.17;;;35.65;;
22606;SDS011;11470;20.968;105.834;2023-05-19T13:18:21;46.10;;;34.67;;
22606;SDS011;11470;20.968;105.834;2023-05-19T13:23:27;50.63;;;32.88;;
22606;SDS011;11470;20.968;105.834;2023-05-19T13:28:33;40.70;;;33.70;;
22606;SDS011;11470;20.968;105.834;2023-05-19T13:33:54;43.90;;;32.92;;
22606;SDS011;11470;20.968;105.834;2023-05-19T13:39:00;43.13;;;34.28;;
22606;SDS011;11470;20.968;105.834;2023-05-19T13:44:05;40.72;;;32.83;;
22606;SDS011;11470;20.968;105.834;2023-05-19T13:49:11;49.75;;;35.33;;
22606;SDS011;11470;20.968;105.834;2023-05-19T13:54:20;50.22;;;35.35;;
22606;SDS011;11470;20.968;105.834;2023-05-19T13:59:28;44.05;;;32.83;;
22606;SDS011;11470;20.968;105.834;2023-05-19T14:04:37;43.08;;;31.30;;
22606;SDS011;11470;20.968;105.834;2023-05-19T14:09:43;44.67;;;33.70;;
22606;SDS011;11470;20.968;105.834;2023-05-19T14:20:18;43.63;;;31.73;;
22606;SDS011;11470;20.968;105.834;2023-05-19T14:25:25;48.22;;;36.10;;
22606;SDS011;11470;20.968;105.834;2023-05-19T14:30:30;42.13;;;27.00;;
22606;SDS011;11470;20.968;105.834;2023-05-19T14:35:37;42.88;;;31.45;;
22606;SDS011;11470;20.968;105.834;2023-05-19T14:40:42;46.90;;;34.15;;
22606;SDS011;11470;20.968;105.834;2023-05-19T14:45:52;55.08;;;36.75;;
22606;SDS011;11470;20.968;105.834;2023-05-19T14:50:57;46.50;;;33.75;;
22606;SDS011;11470;20.968;105.834;2023-05-19T14:56:04;51.92;;;35.15;;
22606;SDS011;11470;20.968;105.834;2023-05-19T15:01:10;48.38;;;35.63;;
22606;SDS011;11470;20.968;105.834;2023-05-19T15:06:19;47.45;;;34.45;;
22606;SDS011;11470;20.968;105.834;2023-05-19T15:11:25;47.15;;;36.15;;
22606;SDS011;11470;20.968;105.834;2023-05-19T15:16:32;48.83;;;34.90;;
22606;SDS011;11470;20.968;105.834;2023-05-19T15:21:38;52.10;;;36.13;;
22606;SDS011;11470;20.968;105.834;2023-05-19T15:26:49;46.88;;;32.50;;
22606;SDS011;11470;20.968;105.834;2023-05-19T15:31:55;46.95;;;34.15;;
22606;SDS011;11470;20.968;105.834;2023-05-19T15:37:01;49.33;;;34.97;;
22606;SDS011;11470;20.968;105.834;2023-05-19T15:42:09;47.00;;;34.47;;
22606;SDS011;11470;20.968;105.834;2023-05-19T15:47:15;43.22;;;34.55;;
22606;SDS011;11470;20.968;105.834;2023-05-19T15:52:21;54.17;;;37.45;;
22606;SDS011;11470;20.968;105.834;2023-05-19T15:57:27;41.85;;;32.50;;
22606;SDS011;11470;20.968;105.834;2023-05-19T16:02:32;42.95;;;33.88;;
22606;SDS011;11470;20.968;105.834;2023-05-19T16:07:38;48.60;;;36.33;;
22606;SDS011;11470;20.968;105.834;2023-05-19T16:12:44;48.08;;;34.92;;
22606;SDS011;11470;20.968;105.834;2023-05-19T16:17:50;43.38;;;34.33;;
22606;SDS011;11470;20.968;105.834;2023-05-19T16:22:58;46.28;;;35.13;;
22606;SDS011;11470;20.968;105.834;2023-05-19T16:28:03;52.13;;;37.33;;
22606;SDS011;11470;20.968;105.834;2023-05-19T16:33:09;56.10;;;38.50;;
22606;SDS011;11470;20.968;105.834;2023-05-19T16:38:14;47.58;;;34.90;;
22606;SDS011;11470;20.968;105.834;2023-05-19T16:43:20;42.33;;;33.00;;
22606;SDS011;11470;20.968;105.834;2023-05-19T16:48:27;40.20;;;31.70;;
22606;SDS011;11470;20.968;105.834;2023-05-19T16:53:33;46.58;;;34.30;;
22606;SDS011;11470;20.968;105.834;2023-05-19T16:58:38;47.13;;;34.50;;
22606;SDS011;11470;20.968;105.834;2023-05-19T17:03:45;51.88;;;36.55;;
22606;SDS011;11470;20.968;105.834;2023-05-19T17:08:50;54.92;;;37.13;;
22606;SDS011;11470;20.968;105.834;2023-05-19T17:13:56;37.80;;;31.48;;
22606;SDS011;11470;20.968;105.834;2023-05-19T17:19:01;38.38;;;32.70;;
22606;SDS011;11470;20.968;105.834;2023-05-19T17:24:08;53.35;;;38.92;;
22606;SDS011;11470;20.968;105.834;2023-05-19T17:29:13;45.00;;;34.80;;
22606;SDS011;11470;20.968;105.834;2023-05-19T17:34:21;55.28;;;37.13;;
22606;SDS011;11470;20.968;105.834;2023-05-19T17:39:27;43.38;;;34.35;;
22606;SDS011;11470;20.968;105.834;2023-05-19T17:44:32;45.40;;;36.00;;
22606;SDS011;11470;20.968;105.834;2023-05-19T17:49:38;49.97;;;35.45;;
22606;SDS011;11470;20.968;105.834;2023-05-19T17:54:45;52.90;;;34.65;;
22606;SDS011;11470;20.968;105.834;2023-05-19T17:59:51;56.33;;;39.25;;
22606;SDS011;11470;20.968;105.834;2023-05-19T18:04:56;46.95;;;35.50;;
22606;SDS011;11470;20.968;105.834;2023-05-19T18:10:02;56.20;;;39.50;;
22606;SDS011;11470;20.968;105.834;2023-05-19T18:15:10;70.35;;;44.97;;
22606;SDS011;11470;20.968;105.834;2023-05-19T18:20:15;70.10;;;45.63;;
22606;SDS011;11470;20.968;105.834;2023-05-19T18:25:21;60.97;;;41.90;;
22606;SDS011;11470;20.968;105.834;2023-05-19T18:30:27;60.42;;;40.28;;
22606;SDS011;11470;20.968;105.834;2023-05-19T18:35:34;54.08;;;39.30;;
22606;SDS011;11470;20.968;105.834;2023-05-19T18:40:43;44.70;;;34.50;;
22606;SDS011;11470;20.968;105.834;2023-05-19T18:45:49;62.53;;;45.15;;
22606;SDS011;11470;20.968;105.834;2023-05-19T18:50:54;59.65;;;42.05;;
22606;SDS011;11470;20.968;105.834;2023-05-19T18:56:00;51.58;;;36.67;;
22606;SDS011;11470;20.968;105.834;2023-05-19T19:01:08;52.03;;;37.63;;
22606;SDS011;11470;20.968;105.834;2023-05-19T19:06:14;51.30;;;37.03;;
22606;SDS011;11470;20.968;105.834;2023-05-19T19:11:20;50.70;;;35.58;;
22606;SDS011;11470;20.968;105.834;2023-05-19T19:16:25;68.10;;;42.88;;
22606;SDS011;11470;20.968;105.834;2023-05-19T19:21:31;60.42;;;39.15;;
22606;SDS011;11470;20.968;105.834;2023-05-19T19:26:42;58.30;;;38.40;;
22606;SDS011;11470;20.968;105.834;2023-05-19T19:31:50;61.78;;;40.15;;
22606;SDS011;11470;20.968;105.834;2023-05-19T19:36:56;55.33;;;40.30;;
22606;SDS011;11470;20.968;105.834;2023-05-19T19:42:01;50.95;;;35.85;;
22606;SDS011;11470;20.968;105.834;2023-05-19T19:47:07;60.95;;;42.17;;
22606;SDS011;11470;20.968;105.834;2023-05-19T19:52:12;65.68;;;42.45;;
22606;SDS011;11470;20.968;105.834;2023-05-19T19:57:18;66.35;;;43.13;;
22606;SDS011;11470;20.968;105.834;2023-05-19T20:02:23;61.03;;;39.50;;
22606;SDS011;11470;20.968;105.834;2023-05-19T20:07:29;57.22;;;37.70;;
22606;SDS011;11470;20.968;105.834;2023-05-19T20:12:35;60.88;;;38.67;;
22606;SDS011;11470;20.968;105.834;2023-05-19T20:17:40;56.75;;;38.03;;
22606;SDS011;11470;20.968;105.834;2023-05-19T20:22:45;42.00;;;33.17;;
22606;SDS011;11470;20.968;105.834;2023-05-19T20:27:51;50.47;;;35.03;;
22606;SDS011;11470;20.968;105.834;2023-05-19T20:32:56;52.22;;;36.47;;
22606;SDS011;11470;20.968;105.834;2023-05-19T20:38:02;50.17;;;34.47;;
22606;SDS011;11470;20.968;105.834;2023-05-19T20:43:08;45.00;;;33.15;;
22606;SDS011;11470;20.968;105.834;2023-05-19T20:48:14;46.40;;;33.55;;
22606;SDS011;11470;20.968;105.834;2023-05-19T20:58:24;51.80;;;36.73;;
22606;SDS011;11470;20.968;105.834;2023-05-19T21:03:32;49.88;;;34.22;;
22606;SDS011;11470;20.968;105.834;2023-05-19T21:08:38;58.13;;;38.05;;
22606;SDS011;11470;20.968;105.834;2023-05-19T21:13:43;42.60;;;32.30;;
22606;SDS011;11470;20.968;105.834;2023-05-19T21:18:48;48.97;;;35.92;;
22606;SDS011;11470;20.968;105.834;2023-05-19T21:28:59;49.55;;;33.60;;
22606;SDS011;11470;20.968;105.834;2023-05-19T21:34:04;40.28;;;31.83;;
22606;SDS011;11470;20.968;105.834;2023-05-19T21:39:12;56.50;;;37.42;;
22606;SDS011;11470;20.968;105.834;2023-05-19T21:44:18;51.17;;;36.38;;
22606;SDS011;11470;20.968;105.834;2023-05-19T21:49:24;38.60;;;30.05;;
22606;SDS011;11470;20.968;105.834;2023-05-19T21:59:34;50.58;;;35.53;;
22606;SDS011;11470;20.968;105.834;2023-05-19T22:04:39;42.65;;;31.73;;
22606;SDS011;11470;20.968;105.834;2023-05-19T22:09:45;46.13;;;32.05;;
22606;SDS011;11470;20.968;105.834;2023-05-19T22:14:50;39.33;;;30.27;;
22606;SDS011;11470;20.968;105.834;2023-05-19T22:19:56;55.30;;;34.92;;
22606;SDS011;11470;20.968;105.834;2023-05-19T22:25:01;41.22;;;30.88;;
22606;SDS011;11470;20.968;105.834;2023-05-19T22:30:07;53.90;;;36.03;;
22606;SDS011;11470;20.968;105.834;2023-05-19T22:35:13;51.95;;;34.38;;
22606;SDS011;11470;20.968;105.834;2023-05-19T22:40:18;45.03;;;32.13;;
22606;SDS011;11470;20.968;105.834;2023-05-19T22:50:28;39.03;;;30.33;;
22606;SDS011;11470;20.968;105.834;2023-05-19T22:55:34;39.83;;;30.83;;
22606;SDS011;11470;20.968;105.834;2023-05-19T23:00:39;41.30;;;31.15;;
22606;SDS011;11470;20.968;105.834;2023-05-19T23:05:44;59.13;;;32.53;;
22606;SDS011;11470;20.968;105.834;2023-05-19T23:15:55;46.88;;;32.65;;
22606;SDS011;11470;20.968;105.834;2023-05-19T23:21:00;44.33;;;31.35;;
22606;SDS011;11470;20.968;105.834;2023-05-19T23:26:05;46.80;;;33.75;;
22606;SDS011;11470;20.968;105.834;2023-05-19T23:36:15;41.22;;;31.23;;
22606;SDS011;11470;20.968;105.834;2023-05-19T23:41:21;43.42;;;31.20;;
22606;SDS011;11470;20.968;105.834;2023-05-19T23:46:27;42.20;;;30.27;;
22606;SDS011;11470;20.968;105.834;2023-05-19T23:57:10;46.83;;;31.60;;
